sensor_id;sensor_type;location;lat;lon;timestamp;temperature;humidity
16863;DHT22;52193;48.216;-1.698;2023-07-16T00:01:00;20.30;86.20
16863;DHT22;52193;48.216;-1.698;2023-07-16T00:03:27;20.30;86.30
16863;DHT22;52193;48.216;-1.698;2023-07-16T00:05:54;20.30;86.30
16863;DHT22;52193;48.216;-1.698;2023-07-16T00:08:22;20.30;86.40
16863;DHT22;52193;48.216;-1.698;2023-07-16T00:10:50;20.20;86.50
16863;DHT22;52193;48.216;-1.698;2023-07-16T00:13:17;20.20;86.70
16863;DHT22;52193;48.216;-1.698;2023-07-16T00:15:44;20.20;86.80
16863;DHT22;52193;48.216;-1.698;2023-07-16T00:18:11;20.10;86.90
16863;DHT22;52193;48.216;-1.698;2023-07-16T00:20:38;20.20;87.00
16863;DHT22;52193;48.216;-1.698;2023-07-16T00:23:05;20.10;87.20
16863;DHT22;52193;48.216;-1.698;2023-07-16T00:25:32;20.10;87.20
16863;DHT22;52193;48.216;-1.698;2023-07-16T00:28:02;20.10;87.10
16863;DHT22;52193;48.216;-1.698;2023-07-16T00:30:29;20.10;87.40
16863;DHT22;52193;48.216;-1.698;2023-07-16T00:32:56;20.10;87.60
16863;DHT22;52193;48.216;-1.698;2023-07-16T00:35:23;20.10;87.60
16863;DHT22;52193;48.216;-1.698;2023-07-16T00:37:49;20.00;87.60
16863;DHT22;52193;48.216;-1.698;2023-07-16T00:40:17;20.00;87.70
16863;DHT22;52193;48.216;-1.698;2023-07-16T00:42:44;20.00;87.80
16863;DHT22;52193;48.216;-1.698;2023-07-16T00:45:13;20.00;87.90
16863;DHT22;52193;48.216;-1.698;2023-07-16T00:47:41;20.00;88.10
16863;DHT22;52193;48.216;-1.698;2023-07-16T00:50:10;19.90;88.20
16863;DHT22;52193;48.216;-1.698;2023-07-16T00:52:37;20.00;88.30
16863;DHT22;52193;48.216;-1.698;2023-07-16T00:55:06;20.00;88.30
16863;DHT22;52193;48.216;-1.698;2023-07-16T00:57:34;20.00;88.30
16863;DHT22;52193;48.216;-1.698;2023-07-16T01:00:02;20.00;88.40
16863;DHT22;52193;48.216;-1.698;2023-07-16T01:02:31;20.00;88.40
16863;DHT22;52193;48.216;-1.698;2023-07-16T01:04:59;20.00;88.40
16863;DHT22;52193;48.216;-1.698;2023-07-16T01:07:27;20.00;88.30
16863;DHT22;52193;48.216;-1.698;2023-07-16T01:09:56;20.00;88.40
16863;DHT22;52193;48.216;-1.698;2023-07-16T01:12:23;20.00;88.40
16863;DHT22;52193;48.216;-1.698;2023-07-16T01:14:51;19.90;88.50
16863;DHT22;52193;48.216;-1.698;2023-07-16T01:17:19;19.90;88.60
16863;DHT22;52193;48.216;-1.698;2023-07-16T01:19:47;19.90;88.60
16863;DHT22;52193;48.216;-1.698;2023-07-16T01:25:31;19.90;88.80
16863;DHT22;52193;48.216;-1.698;2023-07-16T01:28:16;19.90;88.90
16863;DHT22;52193;48.216;-1.698;2023-07-16T01:30:50;19.90;89.00
16863;DHT22;52193;48.216;-1.698;2023-07-16T01:33:20;19.90;89.10
16863;DHT22;52193;48.216;-1.698;2023-07-16T01:35:47;19.90;89.10
16863;DHT22;52193;48.216;-1.698;2023-07-16T01:38:16;19.90;89.10
16863;DHT22;52193;48.216;-1.698;2023-07-16T01:40:44;19.90;89.20
16863;DHT22;52193;48.216;-1.698;2023-07-16T01:43:11;19.90;89.20
16863;DHT22;52193;48.216;-1.698;2023-07-16T01:45:38;19.90;89.30
16863;DHT22;52193;48.216;-1.698;2023-07-16T01:48:14;20.00;89.40
16863;DHT22;52193;48.216;-1.698;2023-07-16T01:50:44;20.00;89.40
16863;DHT22;52193;48.216;-1.698;2023-07-16T01:53:10;20.00;89.20
16863;DHT22;52193;48.216;-1.698;2023-07-16T01:55:37;20.00;89.30
16863;DHT22;52193;48.216;-1.698;2023-07-16T01:58:03;20.00;89.40
16863;DHT22;52193;48.216;-1.698;2023-07-16T02:00:31;20.00;89.40
16863;DHT22;52193;48.216;-1.698;2023-07-16T02:02:58;19.90;89.50
16863;DHT22;52193;48.216;-1.698;2023-07-16T02:05:26;19.80;89.50
16863;DHT22;52193;48.216;-1.698;2023-07-16T02:07:53;19.80;89.70
16863;DHT22;52193;48.216;-1.698;2023-07-16T02:10:20;19.80;89.70
16863;DHT22;52193;48.216;-1.698;2023-07-16T02:12:47;19.80;89.60
16863;DHT22;52193;48.216;-1.698;2023-07-16T02:15:14;19.80;89.70
16863;DHT22;52193;48.216;-1.698;2023-07-16T02:17:43;19.80;89.70
16863;DHT22;52193;48.216;-1.698;2023-07-16T02:20:10;19.80;89.80
16863;DHT22;52193;48.216;-1.698;2023-07-16T02:22:39;19.80;89.90
16863;DHT22;52193;48.216;-1.698;2023-07-16T02:25:06;19.80;90.00
16863;DHT22;52193;48.216;-1.698;2023-07-16T02:27:33;19.80;89.90
16863;DHT22;52193;48.216;-1.698;2023-07-16T02:30:00;19.70;90.00
16863;DHT22;52193;48.216;-1.698;2023-07-16T02:32:27;19.70;90.00
16863;DHT22;52193;48.216;-1.698;2023-07-16T02:34:54;19.70;90.10
16863;DHT22;52193;48.216;-1.698;2023-07-16T02:37:21;19.60;90.10
16863;DHT22;52193;48.216;-1.698;2023-07-16T02:39:49;19.60;90.20
16863;DHT22;52193;48.216;-1.698;2023-07-16T02:42:16;19.60;90.20
16863;DHT22;52193;48.216;-1.698;2023-07-16T02:44:43;19.60;90.20
16863;DHT22;52193;48.216;-1.698;2023-07-16T02:47:10;19.70;90.20
16863;DHT22;52193;48.216;-1.698;2023-07-16T02:49:37;19.70;90.20
16863;DHT22;52193;48.216;-1.698;2023-07-16T02:52:05;19.60;90.20
16863;DHT22;52193;48.216;-1.698;2023-07-16T02:54:32;19.60;90.20
16863;DHT22;52193;48.216;-1.698;2023-07-16T02:57:01;19.60;90.30
16863;DHT22;52193;48.216;-1.698;2023-07-16T02:59:28;19.60;90.30
16863;DHT22;52193;48.216;-1.698;2023-07-16T03:01:55;19.50;90.30
16863;DHT22;52193;48.216;-1.698;2023-07-16T03:04:22;19.50;90.30
16863;DHT22;52193;48.216;-1.698;2023-07-16T03:06:49;19.50;90.40
16863;DHT22;52193;48.216;-1.698;2023-07-16T03:09:15;19.50;90.30
16863;DHT22;52193;48.216;-1.698;2023-07-16T03:11:42;19.50;90.40
16863;DHT22;52193;48.216;-1.698;2023-07-16T03:14:11;19.50;90.40
16863;DHT22;52193;48.216;-1.698;2023-07-16T03:16:37;19.40;90.30
16863;DHT22;52193;48.216;-1.698;2023-07-16T03:19:04;19.40;90.40
16863;DHT22;52193;48.216;-1.698;2023-07-16T03:21:31;19.30;90.50
16863;DHT22;52193;48.216;-1.698;2023-07-16T03:23:58;19.30;90.50
16863;DHT22;52193;48.216;-1.698;2023-07-16T03:26:25;19.30;90.50
16863;DHT22;52193;48.216;-1.698;2023-07-16T03:28:52;19.30;90.60
16863;DHT22;52193;48.216;-1.698;2023-07-16T03:31:21;19.30;90.60
16863;DHT22;52193;48.216;-1.698;2023-07-16T03:33:48;19.30;90.60
16863;DHT22;52193;48.216;-1.698;2023-07-16T03:36:15;19.30;90.60
16863;DHT22;52193;48.216;-1.698;2023-07-16T03:38:42;19.20;90.70
16863;DHT22;52193;48.216;-1.698;2023-07-16T03:41:09;19.20;90.80
16863;DHT22;52193;48.216;-1.698;2023-07-16T03:43:35;19.30;90.80
16863;DHT22;52193;48.216;-1.698;2023-07-16T03:46:02;19.20;90.80
16863;DHT22;52193;48.216;-1.698;2023-07-16T03:48:34;19.10;90.80
16863;DHT22;52193;48.216;-1.698;2023-07-16T03:51:01;19.10;90.90
16863;DHT22;52193;48.216;-1.698;2023-07-16T03:53:28;19.10;91.00
16863;DHT22;52193;48.216;-1.698;2023-07-16T03:55:55;19.10;91.00
16863;DHT22;52193;48.216;-1.698;2023-07-16T03:58:22;19.10;91.00
16863;DHT22;52193;48.216;-1.698;2023-07-16T04:00:49;19.20;91.00
16863;DHT22;52193;48.216;-1.698;2023-07-16T04:03:16;19.30;91.00
16863;DHT22;52193;48.216;-1.698;2023-07-16T04:05:44;19.30;91.10
16863;DHT22;52193;48.216;-1.698;2023-07-16T04:08:11;19.30;91.10
16863;DHT22;52193;48.216;-1.698;2023-07-16T04:10:38;19.20;91.00
16863;DHT22;52193;48.216;-1.698;2023-07-16T04:13:05;19.20;91.10
16863;DHT22;52193;48.216;-1.698;2023-07-16T04:15:32;19.20;91.10
16863;DHT22;52193;48.216;-1.698;2023-07-16T04:17:59;19.20;91.10
16863;DHT22;52193;48.216;-1.698;2023-07-16T04:20:26;19.30;91.20
16863;DHT22;52193;48.216;-1.698;2023-07-16T04:22:55;19.30;91.10
16863;DHT22;52193;48.216;-1.698;2023-07-16T04:25:22;19.20;91.20
16863;DHT22;52193;48.216;-1.698;2023-07-16T04:27:49;19.20;91.20
16863;DHT22;52193;48.216;-1.698;2023-07-16T04:30:16;19.20;91.20
16863;DHT22;52193;48.216;-1.698;2023-07-16T04:32:43;19.30;91.20
16863;DHT22;52193;48.216;-1.698;2023-07-16T04:35:10;19.20;91.10
16863;DHT22;52193;48.216;-1.698;2023-07-16T04:37:37;19.20;91.10
16863;DHT22;52193;48.216;-1.698;2023-07-16T04:40:07;19.20;91.20
16863;DHT22;52193;48.216;-1.698;2023-07-16T04:42:34;19.30;91.20
16863;DHT22;52193;48.216;-1.698;2023-07-16T04:45:01;19.40;91.20
16863;DHT22;52193;48.216;-1.698;2023-07-16T04:47:28;19.30;91.10
16863;DHT22;52193;48.216;-1.698;2023-07-16T04:49:55;19.30;91.20
16863;DHT22;52193;48.216;-1.698;2023-07-16T04:52:22;19.40;91.30
16863;DHT22;52193;48.216;-1.698;2023-07-16T04:54:49;19.40;91.20
16863;DHT22;52193;48.216;-1.698;2023-07-16T04:57:17;19.30;91.20
16863;DHT22;52193;48.216;-1.698;2023-07-16T04:59:44;19.30;91.30
16863;DHT22;52193;48.216;-1.698;2023-07-16T05:02:11;19.40;91.30
16863;DHT22;52193;48.216;-1.698;2023-07-16T05:04:39;19.40;91.20
16863;DHT22;52193;48.216;-1.698;2023-07-16T05:07:06;19.30;91.30
16863;DHT22;52193;48.216;-1.698;2023-07-16T05:09:33;19.40;91.30
16863;DHT22;52193;48.216;-1.698;2023-07-16T05:12:00;19.40;91.30
16863;DHT22;52193;48.216;-1.698;2023-07-16T05:14:29;19.40;91.40
16863;DHT22;52193;48.216;-1.698;2023-07-16T05:16:56;19.40;91.30
16863;DHT22;52193;48.216;-1.698;2023-07-16T05:19:23;19.40;91.40
16863;DHT22;52193;48.216;-1.698;2023-07-16T05:21:50;19.50;91.40
16863;DHT22;52193;48.216;-1.698;2023-07-16T05:24:17;19.40;91.40
16863;DHT22;52193;48.216;-1.698;2023-07-16T05:26:43;19.40;91.40
16863;DHT22;52193;48.216;-1.698;2023-07-16T05:29:10;19.40;91.50
16863;DHT22;52193;48.216;-1.698;2023-07-16T05:31:39;19.50;91.50
16863;DHT22;52193;48.216;-1.698;2023-07-16T05:34:06;19.50;91.50
16863;DHT22;52193;48.216;-1.698;2023-07-16T05:36:33;19.50;91.60
16863;DHT22;52193;48.216;-1.698;2023-07-16T05:39:00;19.50;91.60
16863;DHT22;52193;48.216;-1.698;2023-07-16T05:41:26;19.60;91.60
16863;DHT22;52193;48.216;-1.698;2023-07-16T05:43:53;19.60;91.50
16863;DHT22;52193;48.216;-1.698;2023-07-16T05:46:20;19.60;91.60
16863;DHT22;52193;48.216;-1.698;2023-07-16T05:48:48;19.60;91.60
16863;DHT22;52193;48.216;-1.698;2023-07-16T05:51:15;19.60;91.60
16863;DHT22;52193;48.216;-1.698;2023-07-16T05:53:42;19.70;91.60
16863;DHT22;52193;48.216;-1.698;2023-07-16T05:56:09;19.70;91.60
16863;DHT22;52193;48.216;-1.698;2023-07-16T05:58:36;19.70;91.60
16863;DHT22;52193;48.216;-1.698;2023-07-16T06:01:03;19.70;91.60
16863;DHT22;52193;48.216;-1.698;2023-07-16T06:03:30;19.70;91.60
16863;DHT22;52193;48.216;-1.698;2023-07-16T06:05:58;19.80;91.60
16863;DHT22;52193;48.216;-1.698;2023-07-16T06:08:25;19.90;91.60
16863;DHT22;52193;48.216;-1.698;2023-07-16T06:10:52;19.90;91.60
16863;DHT22;52193;48.216;-1.698;2023-07-16T06:13:19;19.90;91.50
16863;DHT22;52193;48.216;-1.698;2023-07-16T06:15:47;19.90;91.60
16863;DHT22;52193;48.216;-1.698;2023-07-16T06:18:14;19.90;91.50
16863;DHT22;52193;48.216;-1.698;2023-07-16T06:20:43;19.90;91.60
16863;DHT22;52193;48.216;-1.698;2023-07-16T06:23:12;19.90;91.60
16863;DHT22;52193;48.216;-1.698;2023-07-16T06:25:39;20.00;91.50
16863;DHT22;52193;48.216;-1.698;2023-07-16T06:28:10;20.00;91.40
16863;DHT22;52193;48.216;-1.698;2023-07-16T06:30:37;20.00;91.50
16863;DHT22;52193;48.216;-1.698;2023-07-16T06:33:04;20.10;91.50
16863;DHT22;52193;48.216;-1.698;2023-07-16T06:35:31;20.10;91.50
16863;DHT22;52193;48.216;-1.698;2023-07-16T06:37:58;20.20;91.40
16863;DHT22;52193;48.216;-1.698;2023-07-16T06:40:28;20.30;91.40
16863;DHT22;52193;48.216;-1.698;2023-07-16T06:42:55;20.40;91.30
16863;DHT22;52193;48.216;-1.698;2023-07-16T06:45:22;20.50;91.30
16863;DHT22;52193;48.216;-1.698;2023-07-16T06:47:49;20.50;91.20
16863;DHT22;52193;48.216;-1.698;2023-07-16T06:50:16;20.50;91.20
16863;DHT22;52193;48.216;-1.698;2023-07-16T06:52:43;20.50;91.20
16863;DHT22;52193;48.216;-1.698;2023-07-16T06:55:10;20.60;91.20
16863;DHT22;52193;48.216;-1.698;2023-07-16T06:57:38;20.70;91.10
16863;DHT22;52193;48.216;-1.698;2023-07-16T07:00:06;20.80;91.10
16863;DHT22;52193;48.216;-1.698;2023-07-16T07:02:36;20.80;91.00
16863;DHT22;52193;48.216;-1.698;2023-07-16T07:05:03;20.80;91.10
16863;DHT22;52193;48.216;-1.698;2023-07-16T07:07:30;20.80;91.10
16863;DHT22;52193;48.216;-1.698;2023-07-16T07:09:57;20.80;91.40
16863;DHT22;52193;48.216;-1.698;2023-07-16T07:12:24;20.70;91.10
16863;DHT22;52193;48.216;-1.698;2023-07-16T07:14:52;20.70;91.40
16863;DHT22;52193;48.216;-1.698;2023-07-16T07:17:19;20.70;91.40
16863;DHT22;52193;48.216;-1.698;2023-07-16T07:19:46;20.80;91.40
16863;DHT22;52193;48.216;-1.698;2023-07-16T07:22:13;20.90;91.30
16863;DHT22;52193;48.216;-1.698;2023-07-16T07:24:40;21.00;91.30
16863;DHT22;52193;48.216;-1.698;2023-07-16T07:27:07;21.10;91.30
16863;DHT22;52193;48.216;-1.698;2023-07-16T07:29:34;21.10;91.10
16863;DHT22;52193;48.216;-1.698;2023-07-16T07:32:02;21.20;91.00
16863;DHT22;52193;48.216;-1.698;2023-07-16T07:34:29;21.20;91.10
16863;DHT22;52193;48.216;-1.698;2023-07-16T07:36:56;21.20;90.70
16863;DHT22;52193;48.216;-1.698;2023-07-16T07:39:23;21.30;90.70
16863;DHT22;52193;48.216;-1.698;2023-07-16T07:41:49;21.40;90.60
16863;DHT22;52193;48.216;-1.698;2023-07-16T07:44:16;21.50;90.50
16863;DHT22;52193;48.216;-1.698;2023-07-16T07:46:43;21.60;90.50
16863;DHT22;52193;48.216;-1.698;2023-07-16T07:49:12;21.70;90.40
16863;DHT22;52193;48.216;-1.698;2023-07-16T07:51:39;21.80;90.30
16863;DHT22;52193;48.216;-1.698;2023-07-16T07:54:06;21.90;90.30
16863;DHT22;52193;48.216;-1.698;2023-07-16T07:56:33;21.90;90.20
16863;DHT22;52193;48.216;-1.698;2023-07-16T07:59:00;22.00;90.10
16863;DHT22;52193;48.216;-1.698;2023-07-16T08:01:27;22.00;90.00
16863;DHT22;52193;48.216;-1.698;2023-07-16T08:03:55;22.00;89.70
16863;DHT22;52193;48.216;-1.698;2023-07-16T08:06:23;22.10;89.60
16863;DHT22;52193;48.216;-1.698;2023-07-16T08:08:50;22.10;89.20
16863;DHT22;52193;48.216;-1.698;2023-07-16T08:11:17;22.20;89.20
16863;DHT22;52193;48.216;-1.698;2023-07-16T08:13:44;22.20;88.80
16863;DHT22;52193;48.216;-1.698;2023-07-16T08:16:11;22.20;88.40
16863;DHT22;52193;48.216;-1.698;2023-07-16T08:18:38;22.20;88.20
16863;DHT22;52193;48.216;-1.698;2023-07-16T08:21:05;22.20;88.00
16863;DHT22;52193;48.216;-1.698;2023-07-16T08:23:33;22.20;88.10
16863;DHT22;52193;48.216;-1.698;2023-07-16T08:26:00;22.20;87.80
16863;DHT22;52193;48.216;-1.698;2023-07-16T08:28:27;22.30;87.60
16863;DHT22;52193;48.216;-1.698;2023-07-16T08:30:54;22.30;87.00
16863;DHT22;52193;48.216;-1.698;2023-07-16T08:33:21;22.40;86.80
16863;DHT22;52193;48.216;-1.698;2023-07-16T08:35:47;22.40;86.60
16863;DHT22;52193;48.216;-1.698;2023-07-16T08:38:14;22.50;86.70
16863;DHT22;52193;48.216;-1.698;2023-07-16T08:40:47;22.50;86.40
16863;DHT22;52193;48.216;-1.698;2023-07-16T08:43:16;22.40;86.10
16863;DHT22;52193;48.216;-1.698;2023-07-16T08:45:44;22.40;86.20
16863;DHT22;52193;48.216;-1.698;2023-07-16T08:48:12;22.40;85.90
16863;DHT22;52193;48.216;-1.698;2023-07-16T08:50:42;22.40;86.10
16863;DHT22;52193;48.216;-1.698;2023-07-16T08:53:08;22.50;86.60
16863;DHT22;52193;48.216;-1.698;2023-07-16T08:55:35;22.50;86.70
16863;DHT22;52193;48.216;-1.698;2023-07-16T08:58:06;22.50;86.80
16863;DHT22;52193;48.216;-1.698;2023-07-16T09:00:33;22.60;86.80
16863;DHT22;52193;48.216;-1.698;2023-07-16T09:03:01;22.80;86.60
16863;DHT22;52193;48.216;-1.698;2023-07-16T09:05:29;23.00;86.60
16863;DHT22;52193;48.216;-1.698;2023-07-16T09:07:56;23.10;86.40
16863;DHT22;52193;48.216;-1.698;2023-07-16T09:10:23;23.20;86.10
16863;DHT22;52193;48.216;-1.698;2023-07-16T09:12:49;23.10;85.80
16863;DHT22;52193;48.216;-1.698;2023-07-16T09:15:18;23.10;85.60
16863;DHT22;52193;48.216;-1.698;2023-07-16T09:17:47;23.10;85.40
16863;DHT22;52193;48.216;-1.698;2023-07-16T09:20:15;23.20;85.30
16863;DHT22;52193;48.216;-1.698;2023-07-16T09:22:42;23.30;85.40
16863;DHT22;52193;48.216;-1.698;2023-07-16T09:25:09;23.40;85.50
16863;DHT22;52193;48.216;-1.698;2023-07-16T09:27:36;23.30;85.50
16863;DHT22;52193;48.216;-1.698;2023-07-16T09:30:03;23.20;85.80
16863;DHT22;52193;48.216;-1.698;2023-07-16T09:32:36;23.20;85.70
16863;DHT22;52193;48.216;-1.698;2023-07-16T09:35:07;23.00;85.80
16863;DHT22;52193;48.216;-1.698;2023-07-16T09:37:35;22.90;86.90
16863;DHT22;52193;48.216;-1.698;2023-07-16T09:40:04;22.70;89.30
16863;DHT22;52193;48.216;-1.698;2023-07-16T09:42:36;22.60;90.30
16863;DHT22;52193;48.216;-1.698;2023-07-16T09:45:05;22.30;91.00
16863;DHT22;52193;48.216;-1.698;2023-07-16T09:47:34;22.00;91.60
16863;DHT22;52193;48.216;-1.698;2023-07-16T09:50:01;21.90;91.90
16863;DHT22;52193;48.216;-1.698;2023-07-16T09:52:30;21.90;92.20
16863;DHT22;52193;48.216;-1.698;2023-07-16T09:55:00;22.00;92.30
16863;DHT22;52193;48.216;-1.698;2023-07-16T09:57:30;22.10;92.50
16863;DHT22;52193;48.216;-1.698;2023-07-16T10:00:01;22.20;92.50
16863;DHT22;52193;48.216;-1.698;2023-07-16T10:02:33;22.30;92.60
16863;DHT22;52193;48.216;-1.698;2023-07-16T10:05:11;22.40;92.80
16863;DHT22;52193;48.216;-1.698;2023-07-16T10:07:38;22.50;92.70
16863;DHT22;52193;48.216;-1.698;2023-07-16T10:10:08;22.50;92.70
16863;DHT22;52193;48.216;-1.698;2023-07-16T10:12:36;22.60;92.80
16863;DHT22;52193;48.216;-1.698;2023-07-16T10:15:04;22.60;92.80
16863;DHT22;52193;48.216;-1.698;2023-07-16T10:17:32;22.70;92.90
16863;DHT22;52193;48.216;-1.698;2023-07-16T10:20:02;22.60;92.90
16863;DHT22;52193;48.216;-1.698;2023-07-16T10:22:35;22.60;93.00
16863;DHT22;52193;48.216;-1.698;2023-07-16T10:25:03;22.60;93.10
16863;DHT22;52193;48.216;-1.698;2023-07-16T10:27:31;22.40;93.10
16863;DHT22;52193;48.216;-1.698;2023-07-16T10:30:00;22.40;93.30
16863;DHT22;52193;48.216;-1.698;2023-07-16T10:32:29;22.50;93.30
16863;DHT22;52193;48.216;-1.698;2023-07-16T10:34:56;22.60;93.20
16863;DHT22;52193;48.216;-1.698;2023-07-16T10:37:25;22.70;93.20
16863;DHT22;52193;48.216;-1.698;2023-07-16T10:39:54;22.90;93.10
16863;DHT22;52193;48.216;-1.698;2023-07-16T10:42:23;23.00;93.00
16863;DHT22;52193;48.216;-1.698;2023-07-16T10:44:51;22.80;92.70
16863;DHT22;52193;48.216;-1.698;2023-07-16T10:47:25;23.00;92.80
16863;DHT22;52193;48.216;-1.698;2023-07-16T10:49:52;23.00;92.70
16863;DHT22;52193;48.216;-1.698;2023-07-16T10:52:20;23.00;92.40
16863;DHT22;52193;48.216;-1.698;2023-07-16T10:54:48;22.90;92.30
16863;DHT22;52193;48.216;-1.698;2023-07-16T10:57:17;22.90;92.20
16863;DHT22;52193;48.216;-1.698;2023-07-16T10:59:45;22.90;92.10
16863;DHT22;52193;48.216;-1.698;2023-07-16T11:02:14;22.80;91.90
16863;DHT22;52193;48.216;-1.698;2023-07-16T11:04:43;22.60;91.70
16863;DHT22;52193;48.216;-1.698;2023-07-16T11:07:12;22.60;91.80
16863;DHT22;52193;48.216;-1.698;2023-07-16T11:09:43;22.60;91.90
16863;DHT22;52193;48.216;-1.698;2023-07-16T11:12:13;22.60;91.80
16863;DHT22;52193;48.216;-1.698;2023-07-16T11:14:43;22.60;92.00
16863;DHT22;52193;48.216;-1.698;2023-07-16T11:17:11;22.80;92.00
16863;DHT22;52193;48.216;-1.698;2023-07-16T11:19:39;22.80;91.90
16863;DHT22;52193;48.216;-1.698;2023-07-16T11:22:07;22.90;91.80
16863;DHT22;52193;48.216;-1.698;2023-07-16T11:24:38;23.00;91.80
16863;DHT22;52193;48.216;-1.698;2023-07-16T11:27:13;23.10;91.70
16863;DHT22;52193;48.216;-1.698;2023-07-16T11:29:45;23.10;91.50
16863;DHT22;52193;48.216;-1.698;2023-07-16T11:32:12;23.30;91.50
16863;DHT22;52193;48.216;-1.698;2023-07-16T11:34:51;23.40;91.50
16863;DHT22;52193;48.216;-1.698;2023-07-16T11:37:18;23.60;91.50
16863;DHT22;52193;48.216;-1.698;2023-07-16T11:39:46;23.50;91.30
16863;DHT22;52193;48.216;-1.698;2023-07-16T11:42:17;23.70;91.30
16863;DHT22;52193;48.216;-1.698;2023-07-16T11:44:49;23.80;91.30
16863;DHT22;52193;48.216;-1.698;2023-07-16T11:47:16;23.90;91.00
16863;DHT22;52193;48.216;-1.698;2023-07-16T11:49:43;23.90;90.50
16863;DHT22;52193;48.216;-1.698;2023-07-16T11:52:10;24.10;90.30
16863;DHT22;52193;48.216;-1.698;2023-07-16T11:54:37;24.30;90.00
16863;DHT22;52193;48.216;-1.698;2023-07-16T11:57:04;24.60;88.90
16863;DHT22;52193;48.216;-1.698;2023-07-16T11:59:32;24.70;87.10
16863;DHT22;52193;48.216;-1.698;2023-07-16T12:01:59;24.90;86.20
16863;DHT22;52193;48.216;-1.698;2023-07-16T12:04:26;24.90;85.00
16863;DHT22;52193;48.216;-1.698;2023-07-16T12:06:53;25.10;84.80
16863;DHT22;52193;48.216;-1.698;2023-07-16T12:09:20;25.20;83.90
16863;DHT22;52193;48.216;-1.698;2023-07-16T12:11:47;25.20;83.20
16863;DHT22;52193;48.216;-1.698;2023-07-16T12:14:14;25.10;82.90
16863;DHT22;52193;48.216;-1.698;2023-07-16T12:16:42;25.30;83.10
16863;DHT22;52193;48.216;-1.698;2023-07-16T12:19:10;25.30;81.70
16863;DHT22;52193;48.216;-1.698;2023-07-16T12:21:37;25.50;80.90
16863;DHT22;52193;48.216;-1.698;2023-07-16T12:24:04;25.50;80.10
16863;DHT22;52193;48.216;-1.698;2023-07-16T12:26:31;25.80;79.60
16863;DHT22;52193;48.216;-1.698;2023-07-16T12:28:59;26.10;78.90
16863;DHT22;52193;48.216;-1.698;2023-07-16T12:31:28;26.40;78.30
16863;DHT22;52193;48.216;-1.698;2023-07-16T12:33:56;26.70;77.20
16863;DHT22;52193;48.216;-1.698;2023-07-16T12:36:23;26.90;76.50
16863;DHT22;52193;48.216;-1.698;2023-07-16T12:38:50;27.10;75.50
16863;DHT22;52193;48.216;-1.698;2023-07-16T12:41:17;27.50;74.50
16863;DHT22;52193;48.216;-1.698;2023-07-16T12:43:45;27.80;73.50
16863;DHT22;52193;48.216;-1.698;2023-07-16T12:46:12;28.40;73.10
16863;DHT22;52193;48.216;-1.698;2023-07-16T12:48:39;28.40;72.20
16863;DHT22;52193;48.216;-1.698;2023-07-16T12:51:08;28.30;71.30
16863;DHT22;52193;48.216;-1.698;2023-07-16T12:53:34;28.60;70.90
16863;DHT22;52193;48.216;-1.698;2023-07-16T12:56:01;28.30;70.20
16863;DHT22;52193;48.216;-1.698;2023-07-16T12:58:28;28.20;69.80
16863;DHT22;52193;48.216;-1.698;2023-07-16T13:00:55;28.50;69.20
16863;DHT22;52193;48.216;-1.698;2023-07-16T13:03:22;28.90;68.80
16863;DHT22;52193;48.216;-1.698;2023-07-16T13:05:49;29.30;67.90
16863;DHT22;52193;48.216;-1.698;2023-07-16T13:08:17;29.10;67.90
16863;DHT22;52193;48.216;-1.698;2023-07-16T13:10:44;29.50;68.40
16863;DHT22;52193;48.216;-1.698;2023-07-16T13:13:11;29.90;67.20
16863;DHT22;52193;48.216;-1.698;2023-07-16T13:15:38;30.00;66.80
16863;DHT22;52193;48.216;-1.698;2023-07-16T13:18:05;29.80;67.10
16863;DHT22;52193;48.216;-1.698;2023-07-16T13:20:32;29.50;67.30
16863;DHT22;52193;48.216;-1.698;2023-07-16T13:22:59;29.60;66.00
16863;DHT22;52193;48.216;-1.698;2023-07-16T13:25:27;30.20;64.50
16863;DHT22;52193;48.216;-1.698;2023-07-16T13:27:55;31.30;63.20
16863;DHT22;52193;48.216;-1.698;2023-07-16T13:30:22;32.40;61.70
16863;DHT22;52193;48.216;-1.698;2023-07-16T13:32:49;33.60;59.90
16863;DHT22;52193;48.216;-1.698;2023-07-16T13:35:16;33.20;59.10
16863;DHT22;52193;48.216;-1.698;2023-07-16T13:37:43;32.30;59.90
16863;DHT22;52193;48.216;-1.698;2023-07-16T13:40:12;32.60;60.00
16863;DHT22;52193;48.216;-1.698;2023-07-16T13:42:40;31.90;60.10
16863;DHT22;52193;48.216;-1.698;2023-07-16T13:45:08;32.40;59.80
16863;DHT22;52193;48.216;-1.698;2023-07-16T13:47:35;32.60;58.70
16863;DHT22;52193;48.216;-1.698;2023-07-16T13:50:02;33.10;58.90
16863;DHT22;52193;48.216;-1.698;2023-07-16T13:52:29;34.60;56.90
16863;DHT22;52193;48.216;-1.698;2023-07-16T13:54:56;34.40;55.90
16863;DHT22;52193;48.216;-1.698;2023-07-16T13:57:23;33.10;56.60
16863;DHT22;52193;48.216;-1.698;2023-07-16T13:59:51;34.70;57.00
16863;DHT22;52193;48.216;-1.698;2023-07-16T14:02:18;36.50;55.20
16863;DHT22;52193;48.216;-1.698;2023-07-16T14:04:46;37.30;53.40
16863;DHT22;52193;48.216;-1.698;2023-07-16T14:07:12;38.70;52.20
16863;DHT22;52193;48.216;-1.698;2023-07-16T14:09:39;40.00;50.90
16863;DHT22;52193;48.216;-1.698;2023-07-16T14:12:07;39.90;50.10
16863;DHT22;52193;48.216;-1.698;2023-07-16T14:14:34;37.40;50.90
16863;DHT22;52193;48.216;-1.698;2023-07-16T14:17:02;37.40;51.90
16863;DHT22;52193;48.216;-1.698;2023-07-16T14:19:29;38.10;51.50
16863;DHT22;52193;48.216;-1.698;2023-07-16T14:21:56;38.10;51.40
16863;DHT22;52193;48.216;-1.698;2023-07-16T14:24:23;38.90;50.80
16863;DHT22;52193;48.216;-1.698;2023-07-16T14:26:50;38.20;49.90
16863;DHT22;52193;48.216;-1.698;2023-07-16T14:29:17;36.40;50.60
16863;DHT22;52193;48.216;-1.698;2023-07-16T14:31:44;35.00;51.90
16863;DHT22;52193;48.216;-1.698;2023-07-16T14:34:12;34.30;52.90
16863;DHT22;52193;48.216;-1.698;2023-07-16T14:36:40;34.30;53.10
16863;DHT22;52193;48.216;-1.698;2023-07-16T14:39:07;34.60;53.40
16863;DHT22;52193;48.216;-1.698;2023-07-16T14:41:34;34.80;52.60
16863;DHT22;52193;48.216;-1.698;2023-07-16T14:44:01;34.50;52.90
16863;DHT22;52193;48.216;-1.698;2023-07-16T14:46:28;34.00;53.20
16863;DHT22;52193;48.216;-1.698;2023-07-16T14:48:55;33.50;53.60
16863;DHT22;52193;48.216;-1.698;2023-07-16T14:51:25;32.90;53.90
16863;DHT22;52193;48.216;-1.698;2023-07-16T14:53:52;32.50;54.20
16863;DHT22;52193;48.216;-1.698;2023-07-16T14:56:19;32.50;54.80
16863;DHT22;52193;48.216;-1.698;2023-07-16T14:58:46;32.30;54.60
16863;DHT22;52193;48.216;-1.698;2023-07-16T15:01:13;31.80;54.90
16863;DHT22;52193;48.216;-1.698;2023-07-16T15:03:40;31.40;55.40
16863;DHT22;52193;48.216;-1.698;2023-07-16T15:06:07;31.00;55.80
16863;DHT22;52193;48.216;-1.698;2023-07-16T15:08:36;31.20;56.30
16863;DHT22;52193;48.216;-1.698;2023-07-16T15:11:03;31.50;55.40
16863;DHT22;52193;48.216;-1.698;2023-07-16T15:13:30;31.80;54.40
16863;DHT22;52193;48.216;-1.698;2023-07-16T15:15:57;32.10;54.20
16863;DHT22;52193;48.216;-1.698;2023-07-16T15:18:24;32.00;54.10
16863;DHT22;52193;48.216;-1.698;2023-07-16T15:20:56;31.80;54.40